sensor_id;sensor_type;location;lat;lon;timestamp;P1;durP1;ratioP1;P2;durP2;ratioP2
68212;SDS011;55035;47.792;8.724;2024-03-07T00:01:07;34.33;;;28.48;;
68212;SDS011;55035;47.792;8.724;2024-03-07T00:03:34;33.17;;;26.90;;
68212;SDS011;55035;47.792;8.724;2024-03-07T00:06:00;35.40;;;28.40;;
68212;SDS011;55035;47.792;8.724;2024-03-07T00:08:29;35.97;;;27.83;;
68212;SDS011;55035;47.792;8.724;2024-03-07T00:10:55;35.40;;;26.33;;
68212;SDS011;55035;47.792;8.724;2024-03-07T00:13:23;37.80;;;27.30;;
68212;SDS011;55035;47.792;8.724;2024-03-07T00:15:52;40.67;;;29.25;;
68212;SDS011;55035;47.792;8.724;2024-03-07T00:18:19;40.67;;;29.67;;
68212;SDS011;55035;47.792;8.724;2024-03-07T00:20:45;40.13;;;28.48;;
68212;SDS011;55035;47.792;8.724;2024-03-07T00:23:12;41.90;;;28.98;;
68212;SDS011;55035;47.792;8.724;2024-03-07T00:25:38;43.53;;;29.80;;
68212;SDS011;55035;47.792;8.724;2024-03-07T00:28:05;39.88;;;27.58;;
68212;SDS011;55035;47.792;8.724;2024-03-07T00:30:33;41.75;;;28.25;;
68212;SDS011;55035;47.792;8.724;2024-03-07T00:33:00;42.42;;;29.75;;
68212;SDS011;55035;47.792;8.724;2024-03-07T00:35:26;48.25;;;30.08;;
68212;SDS011;55035;47.792;8.724;2024-03-07T00:37:53;51.38;;;30.98;;
68212;SDS011;55035;47.792;8.724;2024-03-07T00:40:20;55.20;;;33.90;;
68212;SDS011;55035;47.792;8.724;2024-03-07T00:42:47;60.35;;;32.72;;
68212;SDS011;55035;47.792;8.724;2024-03-07T00:45:13;58.97;;;32.42;;
68212;SDS011;55035;47.792;8.724;2024-03-07T00:47:41;57.70;;;32.43;;
68212;SDS011;55035;47.792;8.724;2024-03-07T00:50:08;61.35;;;33.35;;
68212;SDS011;55035;47.792;8.724;2024-03-07T00:52:35;62.50;;;33.58;;
68212;SDS011;55035;47.792;8.724;2024-03-07T00:55:02;62.93;;;33.57;;
68212;SDS011;55035;47.792;8.724;2024-03-07T00:57:29;67.13;;;35.08;;
68212;SDS011;55035;47.792;8.724;2024-03-07T00:59:55;60.22;;;32.72;;
68212;SDS011;55035;47.792;8.724;2024-03-07T01:02:22;65.05;;;33.47;;
68212;SDS011;55035;47.792;8.724;2024-03-07T01:04:51;62.90;;;33.27;;
68212;SDS011;55035;47.792;8.724;2024-03-07T01:07:18;61.10;;;33.87;;
68212;SDS011;55035;47.792;8.724;2024-03-07T01:09:46;65.80;;;34.25;;
68212;SDS011;55035;47.792;8.724;2024-03-07T01:12:13;61.87;;;33.20;;
68212;SDS011;55035;47.792;8.724;2024-03-07T01:14:39;62.40;;;33.33;;
68212;SDS011;55035;47.792;8.724;2024-03-07T01:17:08;63.38;;;33.33;;
68212;SDS011;55035;47.792;8.724;2024-03-07T01:19:34;61.28;;;33.30;;
68212;SDS011;55035;47.792;8.724;2024-03-07T01:22:02;64.17;;;32.97;;
68212;SDS011;55035;47.792;8.724;2024-03-07T01:24:54;66.60;;;34.07;;
68212;SDS011;55035;47.792;8.724;2024-03-07T01:27:21;66.43;;;33.65;;
68212;SDS011;55035;47.792;8.724;2024-03-07T01:29:50;64.50;;;33.40;;
68212;SDS011;55035;47.792;8.724;2024-03-07T01:32:16;64.50;;;35.03;;
68212;SDS011;55035;47.792;8.724;2024-03-07T01:34:43;55.38;;;32.22;;
68212;SDS011;55035;47.792;8.724;2024-03-07T01:37:12;55.33;;;33.47;;
68212;SDS011;55035;47.792;8.724;2024-03-07T01:39:38;47.17;;;29.70;;
68212;SDS011;55035;47.792;8.724;2024-03-07T01:42:06;49.05;;;30.92;;
68212;SDS011;55035;47.792;8.724;2024-03-07T01:44:33;47.75;;;30.42;;
68212;SDS011;55035;47.792;8.724;2024-03-07T01:47:00;46.17;;;31.35;;
68212;SDS011;55035;47.792;8.724;2024-03-07T01:49:29;48.87;;;29.80;;
68212;SDS011;55035;47.792;8.724;2024-03-07T01:51:55;47.75;;;30.67;;
68212;SDS011;55035;47.792;8.724;2024-03-07T01:54:23;48.90;;;32.00;;
68212;SDS011;55035;47.792;8.724;2024-03-07T01:56:50;49.55;;;32.13;;
68212;SDS011;55035;47.792;8.724;2024-03-07T01:59:17;50.77;;;31.70;;
68212;SDS011;55035;47.792;8.724;2024-03-07T02:01:45;49.88;;;31.55;;
68212;SDS011;55035;47.792;8.724;2024-03-07T02:04:13;52.28;;;31.30;;
68212;SDS011;55035;47.792;8.724;2024-03-07T02:06:39;52.00;;;31.90;;
68212;SDS011;55035;47.792;8.724;2024-03-07T02:09:07;57.55;;;32.22;;
68212;SDS011;55035;47.792;8.724;2024-03-07T02:11:35;56.15;;;32.35;;
68212;SDS011;55035;47.792;8.724;2024-03-07T02:14:28;58.77;;;31.77;;
68212;SDS011;55035;47.792;8.724;2024-03-07T02:16:55;61.83;;;33.27;;
68212;SDS011;55035;47.792;8.724;2024-03-07T02:19:22;61.13;;;32.60;;
68212;SDS011;55035;47.792;8.724;2024-03-07T02:21:50;67.80;;;34.22;;
68212;SDS011;55035;47.792;8.724;2024-03-07T02:24:17;69.93;;;32.35;;
68212;SDS011;55035;47.792;8.724;2024-03-07T02:26:44;70.35;;;33.92;;
68212;SDS011;55035;47.792;8.724;2024-03-07T02:29:10;71.90;;;35.90;;
68212;SDS011;55035;47.792;8.724;2024-03-07T02:31:37;64.93;;;32.25;;
68212;SDS011;55035;47.792;8.724;2024-03-07T02:34:06;69.20;;;33.70;;
68212;SDS011;55035;47.792;8.724;2024-03-07T02:36:33;66.72;;;33.45;;
68212;SDS011;55035;47.792;8.724;2024-03-07T02:39:01;63.13;;;32.55;;
68212;SDS011;55035;47.792;8.724;2024-03-07T02:41:28;63.33;;;32.95;;
68212;SDS011;55035;47.792;8.724;2024-03-07T02:43:55;66.93;;;34.22;;
68212;SDS011;55035;47.792;8.724;2024-03-07T02:46:21;60.47;;;32.47;;
68212;SDS011;55035;47.792;8.724;2024-03-07T02:48:48;65.03;;;34.40;;
68212;SDS011;55035;47.792;8.724;2024-03-07T02:51:39;67.00;;;34.10;;
68212;SDS011;55035;47.792;8.724;2024-03-07T02:54:08;69.00;;;34.17;;
68212;SDS011;55035;47.792;8.724;2024-03-07T02:56:35;73.78;;;34.15;;
68212;SDS011;55035;47.792;8.724;2024-03-07T02:59:01;71.75;;;34.80;;
68212;SDS011;55035;47.792;8.724;2024-03-07T03:01:28;63.67;;;31.77;;
68212;SDS011;55035;47.792;8.724;2024-03-07T03:03:55;63.53;;;34.37;;
68212;SDS011;55035;47.792;8.724;2024-03-07T03:06:21;59.10;;;32.15;;
68212;SDS011;55035;47.792;8.724;2024-03-07T03:08:48;59.50;;;31.10;;
68212;SDS011;55035;47.792;8.724;2024-03-07T03:11:16;62.35;;;31.75;;
68212;SDS011;55035;47.792;8.724;2024-03-07T03:13:43;59.67;;;30.70;;
68212;SDS011;55035;47.792;8.724;2024-03-07T03:16:13;59.40;;;31.10;;
68212;SDS011;55035;47.792;8.724;2024-03-07T03:18:39;60.33;;;31.23;;
68212;SDS011;55035;47.792;8.724;2024-03-07T03:21:08;65.35;;;33.38;;
68212;SDS011;55035;47.792;8.724;2024-03-07T03:23:35;66.80;;;33.45;;
68212;SDS011;55035;47.792;8.724;2024-03-07T03:26:02;70.35;;;35.30;;
68212;SDS011;55035;47.792;8.724;2024-03-07T03:28:30;70.87;;;34.47;;
68212;SDS011;55035;47.792;8.724;2024-03-07T03:30:57;75.75;;;33.28;;
68212;SDS011;55035;47.792;8.724;2024-03-07T03:33:23;80.65;;;35.90;;
68212;SDS011;55035;47.792;8.724;2024-03-07T03:35:50;76.43;;;34.42;;
68212;SDS011;55035;47.792;8.724;2024-03-07T03:38:17;81.70;;;35.25;;
68212;SDS011;55035;47.792;8.724;2024-03-07T03:40:45;78.72;;;37.75;;
68212;SDS011;55035;47.792;8.724;2024-03-07T03:43:11;79.72;;;35.17;;
68212;SDS011;55035;47.792;8.724;2024-03-07T03:45:40;75.53;;;35.30;;
68212;SDS011;55035;47.792;8.724;2024-03-07T03:48:06;70.15;;;33.83;;
68212;SDS011;55035;47.792;8.724;2024-03-07T03:50:33;70.97;;;34.33;;
68212;SDS011;55035;47.792;8.724;2024-03-07T03:53:00;61.92;;;32.72;;
68212;SDS011;55035;47.792;8.724;2024-03-07T03:55:29;63.35;;;32.55;;
68212;SDS011;55035;47.792;8.724;2024-03-07T03:58:23;63.22;;;33.03;;
68212;SDS011;55035;47.792;8.724;2024-03-07T04:00:51;63.90;;;34.28;;
68212;SDS011;55035;47.792;8.724;2024-03-07T04:03:17;56.23;;;30.87;;
68212;SDS011;55035;47.792;8.724;2024-03-07T04:05:44;60.40;;;31.92;;
68212;SDS011;55035;47.792;8.724;2024-03-07T04:08:12;57.00;;;30.80;;
68212;SDS011;55035;47.792;8.724;2024-03-07T04:10:39;57.97;;;31.38;;
68212;SDS011;55035;47.792;8.724;2024-03-07T04:13:05;56.13;;;30.30;;
68212;SDS011;55035;47.792;8.724;2024-03-07T04:18:28;55.57;;;31.87;;
68212;SDS011;55035;47.792;8.724;2024-03-07T04:20:55;57.25;;;31.27;;
68212;SDS011;55035;47.792;8.724;2024-03-07T04:23:46;60.08;;;31.75;;
68212;SDS011;55035;47.792;8.724;2024-03-07T04:26:13;57.53;;;30.33;;
68212;SDS011;55035;47.792;8.724;2024-03-07T04:28:40;58.95;;;31.40;;
68212;SDS011;55035;47.792;8.724;2024-03-07T04:31:07;56.22;;;32.88;;
68212;SDS011;55035;47.792;8.724;2024-03-07T04:33:35;55.33;;;31.17;;
68212;SDS011;55035;47.792;8.724;2024-03-07T04:36:02;55.17;;;30.85;;
68212;SDS011;55035;47.792;8.724;2024-03-07T04:38:28;58.30;;;30.05;;
68212;SDS011;55035;47.792;8.724;2024-03-07T04:40:56;57.58;;;31.77;;
68212;SDS011;55035;47.792;8.724;2024-03-07T04:43:22;61.67;;;31.20;;
68212;SDS011;55035;47.792;8.724;2024-03-07T04:45:51;61.92;;;31.00;;
68212;SDS011;55035;47.792;8.724;2024-03-07T04:48:17;69.50;;;31.92;;
68212;SDS011;55035;47.792;8.724;2024-03-07T04:50:45;69.40;;;32.87;;
68212;SDS011;55035;47.792;8.724;2024-03-07T04:53:12;68.40;;;31.63;;
68212;SDS011;55035;47.792;8.724;2024-03-07T04:55:39;70.50;;;32.28;;
68212;SDS011;55035;47.792;8.724;2024-03-07T04:58:06;73.22;;;32.33;;
68212;SDS011;55035;47.792;8.724;2024-03-07T05:00:32;85.13;;;34.40;;
68212;SDS011;55035;47.792;8.724;2024-03-07T05:03:24;90.50;;;35.50;;
68212;SDS011;55035;47.792;8.724;2024-03-07T05:05:52;97.17;;;35.53;;
68212;SDS011;55035;47.792;8.724;2024-03-07T05:08:19;106.78;;;36.28;;
68212;SDS011;55035;47.792;8.724;2024-03-07T05:10:46;108.33;;;35.93;;
68212;SDS011;55035;47.792;8.724;2024-03-07T05:13:12;122.20;;;38.72;;
68212;SDS011;55035;47.792;8.724;2024-03-07T05:16:05;128.25;;;39.28;;
68212;SDS011;55035;47.792;8.724;2024-03-07T05:18:32;123.23;;;38.00;;
68212;SDS011;55035;47.792;8.724;2024-03-07T05:21:00;120.43;;;36.38;;
68212;SDS011;55035;47.792;8.724;2024-03-07T05:23:47;129.23;;;39.80;;
68212;SDS011;55035;47.792;8.724;2024-03-07T05:26:40;130.02;;;39.35;;
68212;SDS011;55035;47.792;8.724;2024-03-07T05:29:08;119.97;;;37.65;;
68212;SDS011;55035;47.792;8.724;2024-03-07T05:31:35;114.93;;;38.27;;
68212;SDS011;55035;47.792;8.724;2024-03-07T05:34:02;113.60;;;38.38;;
68212;SDS011;55035;47.792;8.724;2024-03-07T05:36:31;112.43;;;38.67;;
68212;SDS011;55035;47.792;8.724;2024-03-07T05:38:58;104.70;;;39.00;;
68212;SDS011;55035;47.792;8.724;2024-03-07T05:41:49;86.03;;;34.70;;
68212;SDS011;55035;47.792;8.724;2024-03-07T05:44:15;94.78;;;33.35;;
68212;SDS011;55035;47.792;8.724;2024-03-07T05:46:42;107.13;;;33.80;;
68212;SDS011;55035;47.792;8.724;2024-03-07T05:49:14;117.78;;;34.85;;
68212;SDS011;55035;47.792;8.724;2024-03-07T05:51:43;108.55;;;33.42;;
68212;SDS011;55035;47.792;8.724;2024-03-07T05:54:10;109.65;;;33.90;;
68212;SDS011;55035;47.792;8.724;2024-03-07T05:56:38;127.93;;;35.15;;
68212;SDS011;55035;47.792;8.724;2024-03-07T05:59:05;132.57;;;34.33;;
68212;SDS011;55035;47.792;8.724;2024-03-07T06:01:32;155.30;;;41.17;;
68212;SDS011;55035;47.792;8.724;2024-03-07T06:03:59;141.55;;;42.15;;
68212;SDS011;55035;47.792;8.724;2024-03-07T06:06:26;145.80;;;41.85;;
68212;SDS011;55035;47.792;8.724;2024-03-07T06:08:54;131.17;;;42.53;;
68212;SDS011;55035;47.792;8.724;2024-03-07T06:11:22;109.10;;;41.08;;
68212;SDS011;55035;47.792;8.724;2024-03-07T06:13:48;96.97;;;39.73;;
68212;SDS011;55035;47.792;8.724;2024-03-07T06:16:15;88.07;;;39.60;;
68212;SDS011;55035;47.792;8.724;2024-03-07T06:18:41;76.13;;;38.50;;
68212;SDS011;55035;47.792;8.724;2024-03-07T06:21:08;71.53;;;39.37;;
68212;SDS011;55035;47.792;8.724;2024-03-07T06:23:35;68.18;;;39.92;;
68212;SDS011;55035;47.792;8.724;2024-03-07T06:26:03;65.10;;;37.30;;
68212;SDS011;55035;47.792;8.724;2024-03-07T06:29:03;64.45;;;37.72;;
68212;SDS011;55035;47.792;8.724;2024-03-07T06:31:31;60.83;;;35.50;;
68212;SDS011;55035;47.792;8.724;2024-03-07T06:33:58;62.08;;;37.53;;
68212;SDS011;55035;47.792;8.724;2024-03-07T06:36:24;59.58;;;34.88;;
68212;SDS011;55035;47.792;8.724;2024-03-07T06:38:51;64.53;;;37.90;;
68212;SDS011;55035;47.792;8.724;2024-03-07T06:41:19;55.87;;;33.80;;
68212;SDS011;55035;47.792;8.724;2024-03-07T06:43:46;57.60;;;34.97;;
68212;SDS011;55035;47.792;8.724;2024-03-07T06:46:13;60.53;;;35.53;;
68212;SDS011;55035;47.792;8.724;2024-03-07T06:48:41;60.45;;;35.63;;
68212;SDS011;55035;47.792;8.724;2024-03-07T06:51:08;59.40;;;36.03;;
68212;SDS011;55035;47.792;8.724;2024-03-07T06:53:35;58.60;;;36.08;;
68212;SDS011;55035;47.792;8.724;2024-03-07T06:56:01;58.25;;;36.83;;
68212;SDS011;55035;47.792;8.724;2024-03-07T06:58:30;59.60;;;37.25;;
68212;SDS011;55035;47.792;8.724;2024-03-07T07:00:56;55.07;;;35.13;;
68212;SDS011;55035;47.792;8.724;2024-03-07T07:03:50;53.35;;;34.30;;
68212;SDS011;55035;47.792;8.724;2024-03-07T07:06:17;53.83;;;35.30;;
68212;SDS011;55035;47.792;8.724;2024-03-07T07:08:44;54.30;;;33.83;;
68212;SDS011;55035;47.792;8.724;2024-03-07T07:11:11;54.93;;;35.07;;
68212;SDS011;55035;47.792;8.724;2024-03-07T07:13:39;56.05;;;35.20;;
68212;SDS011;55035;47.792;8.724;2024-03-07T07:16:07;53.70;;;34.78;;
68212;SDS011;55035;47.792;8.724;2024-03-07T07:18:35;54.47;;;36.33;;
68212;SDS011;55035;47.792;8.724;2024-03-07T07:21:02;52.83;;;34.37;;
68212;SDS011;55035;47.792;8.724;2024-03-07T07:23:29;54.47;;;35.37;;
68212;SDS011;55035;47.792;8.724;2024-03-07T07:26:21;53.47;;;34.15;;
68212;SDS011;55035;47.792;8.724;2024-03-07T07:28:49;55.78;;;33.95;;
68212;SDS011;55035;47.792;8.724;2024-03-07T07:31:19;50.83;;;34.08;;
68212;SDS011;55035;47.792;8.724;2024-03-07T07:33:46;53.27;;;35.73;;
68212;SDS011;55035;47.792;8.724;2024-03-07T07:36:38;55.15;;;35.50;;
68212;SDS011;55035;47.792;8.724;2024-03-07T07:39:29;51.42;;;34.25;;
68212;SDS011;55035;47.792;8.724;2024-03-07T07:41:56;52.47;;;34.10;;
68212;SDS011;55035;47.792;8.724;2024-03-07T07:44:25;51.03;;;33.17;;
68212;SDS011;55035;47.792;8.724;2024-03-07T07:46:52;54.53;;;35.55;;
68212;SDS011;55035;47.792;8.724;2024-03-07T07:49:18;53.03;;;36.50;;
68212;SDS011;55035;47.792;8.724;2024-03-07T07:51:46;53.40;;;34.70;;
68212;SDS011;55035;47.792;8.724;2024-03-07T07:54:14;54.07;;;36.20;;
68212;SDS011;55035;47.792;8.724;2024-03-07T07:56:41;55.78;;;37.70;;
68212;SDS011;55035;47.792;8.724;2024-03-07T07:59:07;53.25;;;35.17;;
68212;SDS011;55035;47.792;8.724;2024-03-07T08:01:36;51.72;;;35.30;;
68212;SDS011;55035;47.792;8.724;2024-03-07T08:04:02;54.60;;;36.08;;
68212;SDS011;55035;47.792;8.724;2024-03-07T08:06:30;55.28;;;34.80;;
68212;SDS011;55035;47.792;8.724;2024-03-07T08:08:57;53.65;;;35.58;;
68212;SDS011;55035;47.792;8.724;2024-03-07T08:11:23;53.40;;;35.67;;
68212;SDS011;55035;47.792;8.724;2024-03-07T08:13:50;53.15;;;34.95;;
68212;SDS011;55035;47.792;8.724;2024-03-07T08:16:17;53.65;;;34.97;;
68212;SDS011;55035;47.792;8.724;2024-03-07T08:18:45;55.25;;;36.92;;
68212;SDS011;55035;47.792;8.724;2024-03-07T08:21:12;54.83;;;34.85;;
68212;SDS011;55035;47.792;8.724;2024-03-07T08:23:39;55.63;;;36.60;;
68212;SDS011;55035;47.792;8.724;2024-03-07T08:26:06;57.28;;;38.13;;
68212;SDS011;55035;47.792;8.724;2024-03-07T08:28:33;54.72;;;37.13;;
68212;SDS011;55035;47.792;8.724;2024-03-07T08:31:00;56.67;;;36.50;;
68212;SDS011;55035;47.792;8.724;2024-03-07T08:33:28;55.25;;;35.45;;
68212;SDS011;55035;47.792;8.724;2024-03-07T08:35:59;52.67;;;34.50;;
68212;SDS011;55035;47.792;8.724;2024-03-07T08:38:26;53.10;;;35.67;;
68212;SDS011;55035;47.792;8.724;2024-03-07T08:40:53;53.08;;;36.63;;
68212;SDS011;55035;47.792;8.724;2024-03-07T08:43:20;53.53;;;35.17;;
68212;SDS011;55035;47.792;8.724;2024-03-07T08:45:47;48.53;;;33.23;;
68212;SDS011;55035;47.792;8.724;2024-03-07T08:48:13;47.28;;;33.05;;
68212;SDS011;55035;47.792;8.724;2024-03-07T08:50:40;49.55;;;33.13;;
68212;SDS011;55035;47.792;8.724;2024-03-07T08:53:08;51.47;;;34.30;;
68212;SDS011;55035;47.792;8.724;2024-03-07T08:55:35;50.07;;;33.77;;
68212;SDS011;55035;47.792;8.724;2024-03-07T08:58:01;55.95;;;38.72;;
68212;SDS011;55035;47.792;8.724;2024-03-07T09:00:29;50.70;;;35.40;;
68212;SDS011;55035;47.792;8.724;2024-03-07T09:02:57;51.17;;;34.13;;
68212;SDS011;55035;47.792;8.724;2024-03-07T09:05:24;54.55;;;34.00;;
68212;SDS011;55035;47.792;8.724;2024-03-07T09:07:52;54.75;;;33.90;;
68212;SDS011;55035;47.792;8.724;2024-03-07T09:10:20;52.65;;;35.55;;
68212;SDS011;55035;47.792;8.724;2024-03-07T09:12:50;56.70;;;37.57;;
68212;SDS011;55035;47.792;8.724;2024-03-07T09:15:17;54.70;;;34.63;;
68212;SDS011;55035;47.792;8.724;2024-03-07T09:17:46;53.47;;;36.78;;
68212;SDS011;55035;47.792;8.724;2024-03-07T09:20:13;57.13;;;37.83;;
68212;SDS011;55035;47.792;8.724;2024-03-07T09:22:44;59.30;;;37.83;;
68212;SDS011;55035;47.792;8.724;2024-03-07T09:25:11;63.63;;;41.22;;
68212;SDS011;55035;47.792;8.724;2024-03-07T09:27:39;57.50;;;36.60;;
68212;SDS011;55035;47.792;8.724;2024-03-07T09:30:07;58.20;;;35.38;;
68212;SDS011;55035;47.792;8.724;2024-03-07T09:32:37;57.85;;;36.15;;
68212;SDS011;55035;47.792;8.724;2024-03-07T09:35:06;57.40;;;38.17;;
68212;SDS011;55035;47.792;8.724;2024-03-07T09:38:02;53.08;;;34.10;;
68212;SDS011;55035;47.792;8.724;2024-03-07T09:40:29;51.17;;;33.75;;
68212;SDS011;55035;47.792;8.724;2024-03-07T09:42:57;56.80;;;36.13;;
68212;SDS011;55035;47.792;8.724;2024-03-07T09:45:28;53.15;;;34.65;;
68212;SDS011;55035;47.792;8.724;2024-03-07T09:47:55;51.47;;;32.95;;
68212;SDS011;55035;47.792;8.724;2024-03-07T09:50:23;49.97;;;33.13;;
68212;SDS011;55035;47.792;8.724;2024-03-07T09:52:53;48.67;;;32.85;;
68212;SDS011;55035;47.792;8.724;2024-03-07T09:55:21;49.97;;;31.85;;
68212;SDS011;55035;47.792;8.724;2024-03-07T09:57:50;49.80;;;32.55;;
68212;SDS011;55035;47.792;8.724;2024-03-07T10:00:19;48.22;;;31.92;;
68212;SDS011;55035;47.792;8.724;2024-03-07T10:02:53;46.13;;;30.75;;
68212;SDS011;55035;47.792;8.724;2024-03-07T10:05:22;48.03;;;33.15;;
68212;SDS011;55035;47.792;8.724;2024-03-07T10:07:48;48.03;;;31.80;;
68212;SDS011;55035;47.792;8.724;2024-03-07T10:10:16;46.70;;;33.05;;
68212;SDS011;55035;47.792;8.724;2024-03-07T10:12:43;44.97;;;30.92;;
68212;SDS011;55035;47.792;8.724;2024-03-07T10:15:10;46.05;;;29.75;;
68212;SDS011;55035;47.792;8.724;2024-03-07T10:17:40;44.30;;;29.52;;
68212;SDS011;55035;47.792;8.724;2024-03-07T10:20:08;44.75;;;31.20;;
68212;SDS011;55035;47.792;8.724;2024-03-07T10:22:39;45.67;;;30.77;;
68212;SDS011;55035;47.792;8.724;2024-03-07T10:25:06;45.60;;;31.40;;
68212;SDS011;55035;47.792;8.724;2024-03-07T10:27:35;44.33;;;30.10;;
68212;SDS011;55035;47.792;8.724;2024-03-07T10:30:03;44.92;;;31.80;;
68212;SDS011;55035;47.792;8.724;2024-03-07T10:32:59;46.65;;;29.70;;
68212;SDS011;55035;47.792;8.724;2024-03-07T10:35:27;48.55;;;33.25;;
68212;SDS011;55035;47.792;8.724;2024-03-07T10:37:54;48.13;;;31.80;;
68212;SDS011;55035;47.792;8.724;2024-03-07T10:40:25;50.85;;;33.70;;
68212;SDS011;55035;47.792;8.724;2024-03-07T10:42:54;50.67;;;34.40;;
68212;SDS011;55035;47.792;8.724;2024-03-07T10:45:22;54.80;;;34.15;;
68212;SDS011;55035;47.792;8.724;2024-03-07T10:47:52;49.60;;;34.17;;
68212;SDS011;55035;47.792;8.724;2024-03-07T10:50:23;48.30;;;31.85;;
68212;SDS011;55035;47.792;8.724;2024-03-07T10:52:53;48.72;;;30.88;;
68212;SDS011;55035;47.792;8.724;2024-03-07T10:55:23;49.07;;;33.13;;
68212;SDS011;55035;47.792;8.724;2024-03-07T10:57:57;52.95;;;36.30;;
68212;SDS011;55035;47.792;8.724;2024-03-07T11:00:28;49.00;;;33.22;;
68212;SDS011;55035;47.792;8.724;2024-03-07T11:03:01;50.65;;;33.78;;
68212;SDS011;55035;47.792;8.724;2024-03-07T11:05:36;48.03;;;32.90;;
68212;SDS011;55035;47.792;8.724;2024-03-07T11:08:03;49.80;;;33.00;;
68212;SDS011;55035;47.792;8.724;2024-03-07T11:11:01;49.65;;;33.40;;
68212;SDS011;55035;47.792;8.724;2024-03-07T11:13:27;51.17;;;34.22;;
68212;SDS011;55035;47.792;8.724;2024-03-07T11:15:54;50.08;;;34.70;;
68212;SDS011;55035;47.792;8.724;2024-03-07T11:18:23;49.80;;;33.93;;
68212;SDS011;55035;47.792;8.724;2024-03-07T11:20:52;50.78;;;34.63;;
68212;SDS011;55035;47.792;8.724;2024-03-07T11:23:26;52.63;;;33.80;;
68212;SDS011;55035;47.792;8.724;2024-03-07T11:25:54;50.97;;;33.97;;
68212;SDS011;55035;47.792;8.724;2024-03-07T11:28:27;51.95;;;34.67;;
68212;SDS011;55035;47.792;8.724;2024-03-07T11:30:54;51.40;;;34.08;;
68212;SDS011;55035;47.792;8.724;2024-03-07T11:33:21;47.20;;;33.00;;
68212;SDS011;55035;47.792;8.724;2024-03-07T11:35:52;48.35;;;32.67;;
68212;SDS011;55035;47.792;8.724;2024-03-07T11:38:19;49.03;;;32.93;;
68212;SDS011;55035;47.792;8.724;2024-03-07T11:40:50;48.58;;;31.88;;
68212;SDS011;55035;47.792;8.724;2024-03-07T11:43:18;49.15;;;32.65;;
68212;SDS011;55035;47.792;8.724;2024-03-07T11:45:44;48.65;;;33.72;;
68212;SDS011;55035;47.792;8.724;2024-03-07T11:48:17;51.15;;;32.92;;
68212;SDS011;55035;47.792;8.724;2024-03-07T11:50:45;48.88;;;34.25;;
68212;SDS011;55035;47.792;8.724;2024-03-07T11:53:13;51.15;;;33.85;;
68212;SDS011;55035;47.792;8.724;2024-03-07T11:55:40;50.65;;;34.60;;
68212;SDS011;55035;47.792;8.724;2024-03-07T11:58:11;48.88;;;32.38;;
68212;SDS011;55035;47.792;8.724;2024-03-07T12:00:40;49.88;;;33.72;;
68212;SDS011;55035;47.792;8.724;2024-03-07T12:03:08;47.85;;;33.47;;
68212;SDS011;55035;47.792;8.724;2024-03-07T12:05:38;50.90;;;32.70;;
68212;SDS011;55035;47.792;8.724;2024-03-07T12:08:06;52.33;;;34.38;;
68212;SDS011;55035;47.792;8.724;2024-03-07T12:10:36;49.92;;;32.53;;
68212;SDS011;55035;47.792;8.724;2024-03-07T12:13:04;48.67;;;32.57;;
68212;SDS011;55035;47.792;8.724;2024-03-07T12:15:31;49.67;;;32.55;;
68212;SDS011;55035;47.792;8.724;2024-03-07T12:17:58;52.13;;;34.53;;
68212;SDS011;55035;47.792;8.724;2024-03-07T12:23:22;52.00;;;35.05;;
68212;SDS011;55035;47.792;8.724;2024-03-07T12:25:59;49.53;;;32.53;;
68212;SDS011;55035;47.792;8.724;2024-03-07T12:28:53;50.35;;;34.08;;
68212;SDS011;55035;47.792;8.724;2024-03-07T12:31:45;48.88;;;33.47;;
68212;SDS011;55035;47.792;8.724;2024-03-07T12:34:13;46.97;;;32.90;;
68212;SDS011;55035;47.792;8.724;2024-03-07T12:37:06;48.65;;;33.50;;
68212;SDS011;55035;47.792;8.724;2024-03-07T12:39:33;46.72;;;30.33;;
68212;SDS011;55035;47.792;8.724;2024-03-07T12:42:03;48.80;;;33.58;;
68212;SDS011;55035;47.792;8.724;2024-03-07T12:44:40;50.57;;;33.07;;
68212;SDS011;55035;47.792;8.724;2024-03-07T12:47:10;49.08;;;32.88;;
68212;SDS011;55035;47.792;8.724;2024-03-07T12:49:37;48.50;;;31.98;;
68212;SDS011;55035;47.792;8.724;2024-03-07T12:52:04;46.28;;;32.30;;
68212;SDS011;55035;47.792;8.724;2024-03-07T12:54:33;50.53;;;33.38;;
68212;SDS011;55035;47.792;8.724;2024-03-07T12:57:00;47.22;;;32.17;;
68212;SDS011;55035;47.792;8.724;2024-03-07T12:59:32;48.67;;;33.97;;
68212;SDS011;55035;47.792;8.724;2024-03-07T13:01:58;52.67;;;34.65;;
68212;SDS011;55035;47.792;8.724;2024-03-07T13:04:26;51.28;;;34.00;;
68212;SDS011;55035;47.792;8.724;2024-03-07T13:06:52;50.50;;;33.72;;
68212;SDS011;55035;47.792;8.724;2024-03-07T13:09:19;48.45;;;32.35;;
68212;SDS011;55035;47.792;8.724;2024-03-07T13:11:52;44.63;;;30.90;;
68212;SDS011;55035;47.792;8.724;2024-03-07T13:14:18;45.88;;;32.42;;
68212;SDS011;55035;47.792;8.724;2024-03-07T13:16:48;46.40;;;31.57;;
68212;SDS011;55035;47.792;8.724;2024-03-07T13:19:15;45.67;;;30.70;;
68212;SDS011;55035;47.792;8.724;2024-03-07T13:21:46;44.55;;;30.95;;
68212;SDS011;55035;47.792;8.724;2024-03-07T13:24:13;45.33;;;30.83;;
68212;SDS011;55035;47.792;8.724;2024-03-07T13:26:40;46.80;;;32.45;;
68212;SDS011;55035;47.792;8.724;2024-03-07T13:29:07;43.55;;;31.65;;
68212;SDS011;55035;47.792;8.724;2024-03-07T13:31:35;43.40;;;31.92;;
68212;SDS011;55035;47.792;8.724;2024-03-07T13:34:03;46.15;;;32.83;;
68212;SDS011;55035;47.792;8.724;2024-03-07T13:36:29;45.35;;;32.50;;
68212;SDS011;55035;47.792;8.724;2024-03-07T13:38:57;45.83;;;32.25;;
68212;SDS011;55035;47.792;8.724;2024-03-07T13:41:24;46.37;;;32.87;;
68212;SDS011;55035;47.792;8.724;2024-03-07T13:43:53;47.10;;;31.98;;
68212;SDS011;55035;47.792;8.724;2024-03-07T13:46:21;44.80;;;31.33;;
68212;SDS011;55035;47.792;8.724;2024-03-07T13:48:48;43.55;;;29.75;;
68212;SDS011;55035;47.792;8.724;2024-03-07T13:51:18;46.53;;;31.65;;
68212;SDS011;55035;47.792;8.724;2024-03-07T13:53:45;41.80;;;28.33;;
68212;SDS011;55035;47.792;8.724;2024-03-07T13:56:33;42.40;;;28.73;;
68212;SDS011;55035;47.792;8.724;2024-03-07T14:01:59;41.22;;;27.80;;
68212;SDS011;55035;47.792;8.724;2024-03-07T14:07:26;41.50;;;26.70;;
68212;SDS011;55035;47.792;8.724;2024-03-07T14:10:22;43.15;;;28.60;;
68212;SDS011;55035;47.792;8.724;2024-03-07T14:12:57;41.23;;;27.73;;
68212;SDS011;55035;47.792;8.724;2024-03-07T14:15:48;50.78;;;33.58;;
68212;SDS011;55035;47.792;8.724;2024-03-07T14:21:26;44.38;;;28.67;;
68212;SDS011;55035;47.792;8.724;2024-03-07T14:26:59;46.22;;;31.52;;
68212;SDS011;55035;47.792;8.724;2024-03-07T14:29:31;45.90;;;30.92;;
68212;SDS011;55035;47.792;8.724;2024-03-07T14:32:04;47.00;;;31.38;;
68212;SDS011;55035;47.792;8.724;2024-03-07T14:34:33;46.22;;;30.80;;
68212;SDS011;55035;47.792;8.724;2024-03-07T14:37:04;45.60;;;32.10;;
68212;SDS011;55035;47.792;8.724;2024-03-07T14:39:37;46.40;;;32.63;;
68212;SDS011;55035;47.792;8.724;2024-03-07T14:42:06;47.60;;;33.10;;
68212;SDS011;55035;47.792;8.724;2024-03-07T14:44:36;45.45;;;31.25;;
68212;SDS011;55035;47.792;8.724;2024-03-07T14:47:03;46.38;;;33.33;;
68212;SDS011;55035;47.792;8.724;2024-03-07T14:49:31;46.17;;;32.75;;
68212;SDS011;55035;47.792;8.724;2024-03-07T14:51:58;46.42;;;32.00;;